Time;durP1;ratioP1;P1;durP2;ratioP2;P2;SDS_P1;SDS_P2;PMS_P1;PMS_P2;Temp;Humidity;BMP_temperature;BMP_pressure;BME280_temperature;BME280_humidity;BME280_pressure;Samples;Min_cycle;Max_cycle;Signal;HPM_P1;HPM_P2
2022/01/10 00:00:35;;;;;;;9.13;4.40;;;5.40;99.90;;;;;;5059013;28;20508;-49
2022/01/10 00:03:02;;;;;;;7.00;4.60;;;5.30;99.90;;;;;;5050972;28;20827;-46
2022/01/10 00:05:27;;;;;;;7.70;4.30;;;5.20;99.90;;;;;;5052972;28;20544;-46
2022/01/10 00:07:53;;;;;;;6.27;4.77;;;5.10;99.90;;;;;;5052583;28;20532;-46
2022/01/10 00:10:19;;;;;;;7.40;4.20;;;5.20;99.90;;;;;;5053976;28;20195;-50
2022/01/10 00:12:45;;;;;;;9.37;4.37;;;5.20;99.90;;;;;;5052443;28;20192;-50
2022/01/10 00:15:12;;;;;;;5.17;4.23;;;5.20;99.90;;;;;;5053242;28;20863;-45
2022/01/10 00:17:38;;;;;;;7.97;3.90;;;5.20;99.90;;;;;;5052050;28;20490;-48
2022/01/10 00:20:09;;;;;;;6.47;4.37;;;5.20;99.90;;;;;;5054402;28;20471;-50
2022/01/10 00:22:36;;;;;;;7.00;4.30;;;5.20;99.90;;;;;;5054784;28;20449;-51
2022/01/10 00:25:02;;;;;;;6.07;4.60;;;5.30;99.90;;;;;;5035042;28;20425;-48
2022/01/10 00:27:27;;;;;;;8.17;4.60;;;5.30;99.90;;;;;;5054871;28;20426;-47
2022/01/10 00:29:53;;;;;;;6.90;4.50;;;5.40;99.90;;;;;;5055946;28;21024;-49
2022/01/10 00:32:18;;;;;;;8.17;4.63;;;5.40;99.90;;;;;;5051544;28;20187;-53
2022/01/10 00:34:44;;;;;;;6.90;4.70;;;5.40;99.90;;;;;;5052841;28;20207;-51
2022/01/10 00:37:10;;;;;;;7.33;4.63;;;5.50;99.90;;;;;;5055233;28;20217;-47
2022/01/10 00:39:35;;;;;;;5.90;4.40;;;5.30;99.90;;;;;;5054470;28;20215;-51
2022/01/10 00:42:01;;;;;;;8.37;4.50;;;5.40;99.90;;;;;;5052849;28;20186;-52
2022/01/10 00:44:31;;;;;;;6.27;4.87;;;5.30;99.90;;;;;;5054800;28;20322;-49
2022/01/10 00:46:56;;;;;;;8.13;5.20;;;5.50;99.90;;;;;;5052828;28;20196;-52
2022/01/10 00:49:22;;;;;;;12.53;6.57;;;5.60;99.90;;;;;;5054196;28;20453;-47
2022/01/10 00:51:48;;;;;;;9.17;6.30;;;5.40;99.90;;;;;;5052163;28;20198;-50
2022/01/10 00:54:13;;;;;;;9.73;6.10;;;5.40;99.90;;;;;;5051350;28;20298;-48
2022/01/10 00:56:39;;;;;;;10.27;5.93;;;5.40;99.90;;;;;;5054998;28;20225;-48
2022/01/10 00:59:04;;;;;;;8.93;6.70;;;5.20;99.90;;;;;;5035311;28;20721;-48
2022/01/10 01:01:30;;;;;;;12.07;6.40;;;5.20;99.90;;;;;;5051646;28;20211;-47
2022/01/10 01:03:56;;;;;;;10.63;6.50;;;5.30;99.90;;;;;;5053383;28;20183;-49
2022/01/10 01:06:21;;;;;;;10.07;6.60;;;5.50;99.90;;;;;;5049488;28;20863;-48
2022/01/10 01:08:47;;;;;;;11.43;7.00;;;5.30;99.90;;;;;;5051570;28;21157;-48
2022/01/10 01:11:38;;;;;;;12.13;7.27;;;5.20;99.90;;;;;;5053201;28;20185;-48
2022/01/10 01:14:06;;;;;;;12.13;7.33;;;5.30;99.90;;;;;;5050722;28;20190;-46
2022/01/10 01:24:32;;;;;;;10.67;7.37;;;5.00;99.90;;;;;;5053134;28;20428;-53
2022/01/10 01:26:58;;;;;;;8.10;7.07;;;5.00;99.90;;;;;;5051966;28;20896;-47
2022/01/10 01:29:27;;;;;;;10.97;7.13;;;5.10;99.90;;;;;;5052785;28;20539;-51
2022/01/10 01:31:54;;;;;;;10.23;7.73;;;5.00;99.90;;;;;;5055039;28;20532;-51
2022/01/10 01:34:21;;;;;;;9.23;7.17;;;5.00;99.90;;;;;;5051171;28;20431;-49
2022/01/10 01:36:51;;;;;;;9.53;6.80;;;5.00;99.90;;;;;;5053187;28;20524;-53
2022/01/10 01:39:21;;;;;;;11.03;7.33;;;4.90;99.90;;;;;;5050557;28;20500;-51
2022/01/10 01:41:49;;;;;;;10.23;7.70;;;4.70;99.90;;;;;;5052562;28;20810;-51
2022/01/10 01:44:15;;;;;;;11.23;9.40;;;4.80;99.90;;;;;;5049894;28;20483;-49
2022/01/10 01:46:42;;;;;;;9.80;8.10;;;4.70;99.90;;;;;;5052048;28;20469;-49
2022/01/10 01:49:09;;;;;;;14.50;8.30;;;4.90;99.90;;;;;;5049896;28;20438;-49
2022/01/10 01:51:34;;;;;;;11.53;7.90;;;4.70;99.90;;;;;;5053112;28;20430;-50
2022/01/10 01:54:00;;;;;;;13.83;7.70;;;4.80;99.90;;;;;;5051923;28;20449;-49
2022/01/10 01:56:26;;;;;;;11.70;8.27;;;4.70;99.90;;;;;;5050743;28;20211;-46
2022/01/10 01:58:54;;;;;;;12.00;7.70;;;4.70;99.90;;;;;;5052699;28;20433;-46
2022/01/10 02:01:20;;;;;;;8.40;7.03;;;5.00;99.90;;;;;;5054372;28;20207;-48
2022/01/10 02:03:47;;;;;;;9.30;7.30;;;5.00;99.90;;;;;;5050652;28;21075;-47
2022/01/10 02:06:14;;;;;;;10.07;7.57;;;5.00;99.90;;;;;;5050741;28;20969;-44
2022/01/10 02:08:40;;;;;;;10.83;7.90;;;4.90;99.90;;;;;;5050936;28;20421;-46
2022/01/10 02:11:10;;;;;;;11.90;8.37;;;4.80;99.90;;;;;;5056246;28;20453;-48
2022/01/10 02:13:36;;;;;;;9.70;7.83;;;4.70;99.90;;;;;;5051028;28;20434;-46
2022/01/10 02:16:05;;;;;;;11.97;9.33;;;4.80;99.90;;;;;;5054556;28;20466;-47
2022/01/10 02:18:32;;;;;;;11.23;8.60;;;4.80;99.90;;;;;;5039531;28;20480;-46
2022/01/10 02:21:00;;;;;;;11.67;9.10;;;4.80;99.90;;;;;;5055650;28;20915;-50
2022/01/10 02:23:27;;;;;;;9.80;8.80;;;4.90;99.90;;;;;;5055731;28;20453;-44
2022/01/10 02:25:53;;;;;;;14.37;8.67;;;4.80;99.90;;;;;;5053418;28;21318;-49
2022/01/10 02:28:18;;;;;;;12.77;8.70;;;4.70;99.90;;;;;;5056471;28;20441;-47
2022/01/10 02:30:44;;;;;;;14.40;9.80;;;4.70;99.90;;;;;;5057446;28;20966;-51
2022/01/10 02:33:10;;;;;;;15.37;9.40;;;4.70;99.90;;;;;;5054051;28;20196;-48
2022/01/10 02:35:54;;;;;;;12.87;9.20;;;4.70;99.90;;;;;;5052146;28;20984;-47
2022/01/10 02:38:20;;;;;;;13.93;10.00;;;4.70;99.90;;;;;;5051834;28;20602;-51
2022/01/10 02:40:47;;;;;;;16.73;9.67;;;4.70;99.90;;;;;;5055917;28;20473;-53
2022/01/10 02:43:13;;;;;;;12.53;9.63;;;4.70;99.90;;;;;;5053026;28;20207;-52
2022/01/10 02:45:39;;;;;;;18.70;10.00;;;4.60;99.90;;;;;;5052246;28;20460;-51
2022/01/10 02:48:04;;;;;;;17.57;10.50;;;4.50;99.90;;;;;;5059605;28;20184;-48
2022/01/10 02:50:30;;;;;;;13.50;10.63;;;4.60;99.90;;;;;;5054056;28;20188;-47
2022/01/10 02:52:56;;;;;;;14.50;9.80;;;4.50;99.90;;;;;;5052987;28;20270;-49
2022/01/10 02:55:21;;;;;;;15.30;10.90;;;4.70;99.90;;;;;;5051361;28;20241;-49
2022/01/10 02:57:47;;;;;;;12.90;9.93;;;4.80;99.90;;;;;;5053044;28;20261;-45
2022/01/10 03:00:19;;;;;;;11.30;9.80;;;4.80;99.90;;;;;;5044311;28;20684;-46
2022/01/10 03:02:49;;;;;;;15.57;10.80;;;4.80;99.90;;;;;;5053047;28;20570;-46
2022/01/10 03:05:15;;;;;;;15.70;10.63;;;4.80;99.90;;;;;;5055535;28;20473;-45
2022/01/10 03:07:41;;;;;;;16.13;11.67;;;4.90;99.90;;;;;;5037540;28;20430;-46
2022/01/10 03:10:07;;;;;;;14.70;10.23;;;4.90;99.90;;;;;;5058166;28;20430;-47
2022/01/10 03:12:33;;;;;;;13.67;10.33;;;4.90;99.90;;;;;;5056819;28;20220;-45
2022/01/10 03:14:59;;;;;;;15.90;9.73;;;4.90;99.90;;;;;;5054765;28;20472;-48
2022/01/10 03:17:26;;;;;;;15.03;10.60;;;4.70;99.90;;;;;;5056195;28;20211;-45
2022/01/10 03:19:51;;;;;;;15.60;10.73;;;4.80;99.90;;;;;;5050951;28;20456;-49
2022/01/10 03:22:17;;;;;;;17.60;11.93;;;4.80;99.90;;;;;;5051329;28;20449;-45
2022/01/10 03:24:43;;;;;;;13.70;11.33;;;4.60;99.90;;;;;;5052431;28;20200;-47
2022/01/10 03:27:09;;;;;;;13.77;10.57;;;4.70;99.90;;;;;;5052589;28;21079;-49
2022/01/10 03:29:35;;;;;;;14.33;11.40;;;4.70;99.90;;;;;;5052903;28;20258;-46
2022/01/10 03:32:05;;;;;;;18.60;12.17;;;4.70;99.90;;;;;;5051215;28;20176;-52
2022/01/10 03:34:30;;;;;;;16.70;11.83;;;4.80;99.90;;;;;;5037053;28;20445;-45
2022/01/10 03:36:56;;;;;;;13.50;11.07;;;4.80;99.90;;;;;;5052703;28;20473;-45
2022/01/10 03:39:23;;;;;;;14.53;11.80;;;4.70;99.90;;;;;;5052667;28;20207;-45
2022/01/10 03:41:49;;;;;;;15.33;11.17;;;4.70;99.90;;;;;;5050589;28;20248;-45
2022/01/10 03:44:14;;;;;;;19.30;11.13;;;4.80;99.90;;;;;;5052509;28;20426;-48
2022/01/10 03:46:40;;;;;;;18.40;12.20;;;4.90;99.90;;;;;;5053652;28;20549;-47
2022/01/10 03:49:06;;;;;;;14.83;10.20;;;5.00;99.90;;;;;;5051290;28;20191;-46
2022/01/10 03:51:32;;;;;;;16.07;11.23;;;5.00;99.90;;;;;;5056284;28;20439;-47
2022/01/10 03:53:58;;;;;;;16.10;11.30;;;5.00;99.90;;;;;;5053202;28;20210;-49
2022/01/10 03:56:27;;;;;;;14.60;9.83;;;5.00;99.90;;;;;;5054245;28;20222;-50
2022/01/10 03:58:54;;;;;;;15.80;10.73;;;5.00;99.90;;;;;;5052826;28;20192;-47
2022/01/10 04:01:19;;;;;;;19.77;11.77;;;4.90;99.90;;;;;;5052243;28;20470;-47
2022/01/10 04:03:45;;;;;;;14.70;12.00;;;5.00;99.90;;;;;;5051699;28;20868;-49
2022/01/10 04:06:11;;;;;;;15.10;12.43;;;5.00;99.90;;;;;;5053780;28;20202;-50
2022/01/10 04:08:37;;;;;;;19.50;13.67;;;4.90;99.90;;;;;;5055229;28;20205;-48
2022/01/10 04:11:03;;;;;;;14.80;12.27;;;4.90;99.90;;;;;;5052822;28;21238;-46
2022/01/10 04:13:29;;;;;;;15.37;12.80;;;4.80;99.90;;;;;;5053697;28;20190;-47
2022/01/10 04:15:55;;;;;;;17.67;13.50;;;4.70;99.90;;;;;;5053289;28;20457;-48
2022/01/10 04:18:21;;;;;;;18.27;13.60;;;4.80;99.90;;;;;;5053563;28;20201;-46
2022/01/10 04:20:47;;;;;;;15.97;13.00;;;4.70;99.90;;;;;;5052864;28;20461;-52
2022/01/10 04:23:14;;;;;;;15.03;12.50;;;4.80;99.90;;;;;;5052555;28;20195;-51
2022/01/10 04:25:40;;;;;;;19.97;13.77;;;4.90;99.90;;;;;;5052501;28;20483;-51
2022/01/10 04:28:06;;;;;;;18.33;13.63;;;4.90;99.90;;;;;;5055375;28;20442;-52
2022/01/10 04:30:32;;;;;;;19.20;13.50;;;4.90;99.90;;;;;;5049257;28;20417;-47
2022/01/10 04:32:59;;;;;;;21.13;13.60;;;4.90;99.90;;;;;;5045892;28;20198;-47
2022/01/10 04:35:25;;;;;;;18.20;13.67;;;4.90;99.90;;;;;;5048949;28;20626;-49
2022/01/10 04:37:51;;;;;;;20.83;13.90;;;4.90;99.90;;;;;;5054921;28;20503;-50
2022/01/10 04:40:17;;;;;;;18.50;13.70;;;4.70;99.90;;;;;;5053229;28;20465;-50
2022/01/10 04:42:43;;;;;;;22.33;13.57;;;4.80;99.90;;;;;;5039465;28;20184;-46
2022/01/10 04:45:09;;;;;;;18.83;13.30;;;4.90;99.90;;;;;;5051018;28;20464;-49
2022/01/10 04:47:35;;;;;;;20.63;14.23;;;4.90;99.90;;;;;;5052452;28;20283;-44
2022/01/10 04:52:28;;;;;;;20.27;14.80;;;4.70;99.90;;;;;;5050606;28;20995;-52
2022/01/10 04:54:53;;;;;;;21.47;14.83;;;4.60;99.90;;;;;;5052655;28;20181;-49
2022/01/10 04:57:19;;;;;;;20.70;13.83;;;4.80;99.90;;;;;;5052512;28;20462;-52
2022/01/10 04:59:45;;;;;;;19.47;14.03;;;4.90;99.90;;;;;;5049963;28;20241;-51
2022/01/10 05:02:10;;;;;;;16.97;13.17;;;4.90;99.90;;;;;;5053055;28;20183;-49
2022/01/10 05:04:37;;;;;;;19.43;13.37;;;4.70;99.90;;;;;;5052485;28;20188;-46
2022/01/10 05:07:02;;;;;;;16.47;13.03;;;4.60;99.90;;;;;;5050900;28;20199;-54
2022/01/10 05:09:28;;;;;;;20.07;14.93;;;5.00;99.90;;;;;;5051884;28;20427;-50
2022/01/10 05:11:54;;;;;;;18.20;13.50;;;5.10;99.90;;;;;;5050926;28;20186;-47
2022/01/10 05:14:20;;;;;;;17.73;12.90;;;5.20;99.90;;;;;;5051701;28;20207;-50
2022/01/10 05:16:46;;;;;;;20.77;12.17;;;5.30;99.90;;;;;;5050828;28;20491;-47
2022/01/10 05:19:12;;;;;;;15.83;11.70;;;5.20;99.90;;;;;;5055570;28;20190;-48
2022/01/10 05:21:38;;;;;;;17.03;11.13;;;5.20;99.90;;;;;;5050345;28;20473;-48
2022/01/10 05:24:04;;;;;;;13.67;10.50;;;5.10;99.90;;;;;;5051254;28;20204;-48
2022/01/10 05:26:29;;;;;;;16.90;13.23;;;5.10;99.90;;;;;;5054009;28;20765;-52
2022/01/10 05:28:55;;;;;;;15.60;12.27;;;5.20;99.90;;;;;;5051268;28;20426;-48
2022/01/10 05:31:21;;;;;;;15.33;12.60;;;5.10;99.90;;;;;;5053961;28;20187;-48
2022/01/10 05:33:47;;;;;;;16.87;13.03;;;5.00;99.90;;;;;;5034836;28;20844;-48
2022/01/10 05:36:13;;;;;;;15.20;11.30;;;5.00;99.90;;;;;;5051522;28;20559;-51
2022/01/10 05:38:39;;;;;;;16.27;11.70;;;4.90;99.90;;;;;;5052757;28;21004;-54
2022/01/10 05:41:05;;;;;;;16.77;11.80;;;4.90;99.90;;;;;;5034961;28;20577;-48
2022/01/10 05:43:31;;;;;;;23.03;11.67;;;5.00;99.90;;;;;;5052249;28;20184;-53
2022/01/10 05:45:57;;;;;;;17.90;11.57;;;5.10;99.90;;;;;;5056731;28;21302;-48
2022/01/10 05:48:28;;;;;;;14.60;11.63;;;5.00;99.90;;;;;;5055323;28;20522;-49
2022/01/10 05:50:54;;;;;;;18.10;10.93;;;5.10;99.90;;;;;;5055030;28;20480;-51
2022/01/10 05:53:20;;;;;;;17.30;10.57;;;5.10;99.90;;;;;;5055779;28;20436;-51
2022/01/10 05:55:47;;;;;;;15.33;12.40;;;5.20;99.90;;;;;;5036015;28;20299;-51
2022/01/10 05:58:13;;;;;;;19.30;12.07;;;5.20;99.90;;;;;;5053663;28;20458;-54
2022/01/10 06:00:39;;;;;;;17.70;11.70;;;5.40;99.90;;;;;;5035844;28;20923;-52
2022/01/10 06:03:05;;;;;;;14.60;11.73;;;5.50;99.90;;;;;;5051451;28;20437;-52
2022/01/10 06:05:31;;;;;;;15.53;10.50;;;5.40;99.90;;;;;;5055815;28;21943;-50
2022/01/10 06:08:03;;;;;;;16.07;11.57;;;5.30;99.90;;;;;;5055184;28;20437;-51
2022/01/10 06:10:29;;;;;;;18.37;12.10;;;5.10;99.90;;;;;;5054049;28;20485;-50
2022/01/10 06:12:55;;;;;;;20.00;12.00;;;5.00;99.90;;;;;;5054551;28;21115;-50
2022/01/10 06:15:21;;;;;;;14.60;12.10;;;5.00;99.90;;;;;;5053128;28;20445;-51
2022/01/10 06:17:47;;;;;;;17.10;11.10;;;4.80;99.90;;;;;;5054874;28;20444;-51
2022/01/10 06:20:13;;;;;;;19.70;12.43;;;5.00;99.90;;;;;;5055144;28;20497;-50
2022/01/10 06:22:39;;;;;;;21.23;13.37;;;4.90;99.90;;;;;;5053754;28;20792;-49
2022/01/10 06:25:08;;;;;;;17.77;13.07;;;4.80;99.90;;;;;;5054065;28;20426;-50
2022/01/10 06:27:33;;;;;;;24.50;11.60;;;4.70;99.90;;;;;;5054989;28;20430;-49
2022/01/10 06:29:59;;;;;;;18.90;13.27;;;4.80;99.90;;;;;;5054231;28;20445;-49
2022/01/10 06:32:25;;;;;;;17.87;11.80;;;4.70;99.90;;;;;;5053149;28;20631;-48
2022/01/10 06:34:52;;;;;;;17.83;12.23;;;4.80;99.90;;;;;;5038261;28;20188;-48
2022/01/10 06:37:18;;;;;;;17.87;12.23;;;4.80;99.90;;;;;;5059379;28;20469;-47
2022/01/10 06:39:44;;;;;;;15.97;11.60;;;4.90;99.90;;;;;;5052634;28;20436;-52
2022/01/10 06:42:10;;;;;;;17.80;12.37;;;5.10;99.90;;;;;;5055338;28;20438;-50
2022/01/10 06:44:36;;;;;;;20.13;12.20;;;5.00;99.90;;;;;;5055446;28;20184;-46
2022/01/10 06:47:01;;;;;;;16.60;11.73;;;4.90;99.90;;;;;;5054739;28;20203;-50
2022/01/10 06:49:27;;;;;;;19.00;11.63;;;5.00;99.90;;;;;;5051363;28;20188;-52
2022/01/10 06:51:53;;;;;;;19.27;13.90;;;5.30;99.90;;;;;;5054295;28;20881;-52
2022/01/10 06:54:18;;;;;;;17.40;12.47;;;5.40;99.90;;;;;;5053806;28;20203;-49
2022/01/10 06:56:44;;;;;;;16.10;11.60;;;5.30;99.90;;;;;;5052882;28;20770;-50
2022/01/10 06:59:09;;;;;;;26.23;13.30;;;5.20;99.90;;;;;;5055023;28;20239;-47
2022/01/10 07:01:35;;;;;;;19.47;14.13;;;5.10;99.90;;;;;;5052741;28;20253;-49
2022/01/10 07:04:01;;;;;;;21.60;13.17;;;5.00;99.90;;;;;;5052869;28;20180;-47
2022/01/10 07:06:27;;;;;;;16.10;12.30;;;5.40;99.90;;;;;;5055358;28;20874;-53
2022/01/10 07:08:52;;;;;;;16.77;12.33;;;5.30;99.90;;;;;;5050018;28;20188;-50
2022/01/10 07:11:18;;;;;;;19.30;13.40;;;5.30;99.90;;;;;;5035940;28;20278;-50
2022/01/10 07:13:44;;;;;;;28.40;13.30;;;5.50;99.90;;;;;;5056055;28;20255;-50
2022/01/10 07:16:09;;;;;;;22.47;13.57;;;5.60;99.90;;;;;;5057210;28;20224;-49
2022/01/10 07:18:36;;;;;;;18.20;12.83;;;5.40;99.90;;;;;;5053583;28;20648;-49
2022/01/10 07:21:01;;;;;;;16.73;12.50;;;5.70;99.90;;;;;;5052388;28;20207;-52
2022/01/10 07:23:27;;;;;;;19.23;13.27;;;5.80;99.90;;;;;;5053983;28;20444;-49
2022/01/10 07:25:52;;;;;;;22.87;13.17;;;5.70;99.90;;;;;;5052975;28;20220;-52
2022/01/10 07:28:18;;;;;;;16.27;10.50;;;5.60;99.90;;;;;;5055592;28;20187;-47
2022/01/10 07:30:44;;;;;;;18.30;12.50;;;5.60;99.90;;;;;;5052798;28;20673;-50
2022/01/10 07:33:10;;;;;;;17.57;11.37;;;5.40;99.90;;;;;;5056502;28;20249;-48
2022/01/10 07:35:36;;;;;;;15.73;11.97;;;5.40;99.90;;;;;;5054886;28;20465;-51
2022/01/10 07:38:01;;;;;;;19.17;11.80;;;5.60;99.90;;;;;;5050584;28;20187;-52
2022/01/10 07:40:27;;;;;;;18.77;13.00;;;5.60;99.90;;;;;;5056787;28;20202;-48
2022/01/10 07:42:53;;;;;;;19.47;12.23;;;5.60;99.90;;;;;;5056308;28;20282;-49
2022/01/10 07:45:18;;;;;;;15.80;11.93;;;5.50;99.90;;;;;;5053365;28;20578;-49
2022/01/10 07:47:44;;;;;;;17.17;12.27;;;5.50;99.90;;;;;;5047768;28;20274;-53
2022/01/10 07:50:10;;;;;;;16.97;13.00;;;5.30;99.90;;;;;;5051074;28;20175;-48
2022/01/10 07:52:36;;;;;;;21.10;15.00;;;5.10;99.90;;;;;;5053953;28;20437;-49
2022/01/10 07:55:04;;;;;;;18.23;13.50;;;5.40;99.90;;;;;;5053076;28;20498;-50
2022/01/10 07:57:30;;;;;;;19.90;14.57;;;5.40;99.90;;;;;;5052837;28;20716;-47
2022/01/10 07:59:55;;;;;;;17.07;12.80;;;5.10;99.90;;;;;;5052798;28;20464;-50
2022/01/10 08:02:21;;;;;;;18.10;13.60;;;5.20;99.90;;;;;;5048666;28;20532;-51
2022/01/10 08:04:48;;;;;;;18.60;14.13;;;5.40;99.90;;;;;;5052053;28;20194;-51
2022/01/10 08:07:14;;;;;;;16.27;12.67;;;5.20;99.90;;;;;;5052717;28;20952;-51
2022/01/10 08:09:40;;;;;;;20.60;13.47;;;5.40;99.90;;;;;;5052638;28;20437;-50
2022/01/10 08:12:06;;;;;;;21.40;14.07;;;5.70;99.90;;;;;;5052277;28;20690;-53
2022/01/10 08:14:33;;;;;;;18.80;14.20;;;5.90;99.90;;;;;;5053050;28;20322;-48
2022/01/10 08:16:59;;;;;;;20.80;14.07;;;6.00;99.90;;;;;;5044728;28;20764;-54
2022/01/10 08:19:27;;;;;;;22.97;14.20;;;6.10;99.90;;;;;;5049195;28;20436;-51
2022/01/10 08:21:55;;;;;;;19.37;15.43;;;6.20;99.90;;;;;;5052717;28;20462;-46
2022/01/10 08:24:22;;;;;;;20.07;14.77;;;6.20;99.90;;;;;;5048007;28;20455;-49
2022/01/10 08:26:49;;;;;;;22.47;14.27;;;6.30;99.90;;;;;;5051355;28;20466;-50
2022/01/10 08:29:14;;;;;;;21.53;14.90;;;6.40;99.90;;;;;;5051731;28;20922;-47
2022/01/10 08:31:40;;;;;;;17.47;13.47;;;6.50;99.90;;;;;;5053484;28;20438;-47
2022/01/10 08:34:06;;;;;;;16.77;12.20;;;6.50;99.90;;;;;;5051369;28;20198;-55
2022/01/10 08:36:33;;;;;;;22.80;15.23;;;6.40;99.90;;;;;;5050989;28;20845;-48
2022/01/10 08:38:59;;;;;;;17.70;12.60;;;6.40;99.90;;;;;;5053270;28;20860;-49
2022/01/10 08:41:24;;;;;;;20.43;14.00;;;6.40;99.90;;;;;;5049569;28;20468;-49
2022/01/10 08:43:50;;;;;;;17.97;14.40;;;6.40;99.90;;;;;;5051890;28;20953;-46
2022/01/10 08:46:16;;;;;;;16.43;13.63;;;6.20;99.90;;;;;;5051537;28;20211;-51
2022/01/10 08:48:41;;;;;;;20.10;13.57;;;6.50;99.90;;;;;;5051029;28;20180;-53
2022/01/10 08:51:07;;;;;;;22.70;14.50;;;6.70;99.90;;;;;;5035721;28;21007;-47
2022/01/10 08:53:33;;;;;;;21.10;14.10;;;6.80;99.90;;;;;;5053817;28;20321;-45
2022/01/10 08:56:00;;;;;;;23.00;13.30;;;6.90;99.90;;;;;;5049656;28;20762;-50
2022/01/10 08:58:32;;;;;;;18.03;13.40;;;7.00;99.90;;;;;;5052537;28;20968;-51
2022/01/10 09:01:02;;;;;;;22.13;12.73;;;7.00;99.90;;;;;;5052835;28;20484;-52
2022/01/10 09:03:28;;;;;;;20.50;12.27;;;6.90;99.90;;;;;;5052847;28;20434;-52
2022/01/10 09:05:55;;;;;;;18.00;12.60;;;6.50;99.90;;;;;;5051893;28;20988;-50
2022/01/10 09:08:29;;;;;;;18.93;13.23;;;6.40;99.90;;;;;;5050951;28;20237;-49
2022/01/10 09:10:55;;;;;;;22.60;15.63;;;6.40;99.90;;;;;;5051742;28;20463;-48
2022/01/10 09:13:21;;;;;;;21.23;14.93;;;6.00;99.90;;;;;;5052203;28;20442;-51
2022/01/10 09:15:47;;;;;;;23.50;14.80;;;6.30;99.90;;;;;;5051755;28;20567;-47
2022/01/10 09:18:14;;;;;;;19.83;14.03;;;6.30;99.90;;;;;;5052496;28;20440;-48
2022/01/10 09:20:40;;;;;;;15.53;13.90;;;6.20;99.90;;;;;;5032897;28;20982;-47
2022/01/10 09:23:06;;;;;;;17.53;13.37;;;6.30;99.90;;;;;;5047474;28;20475;-49
2022/01/10 09:25:32;;;;;;;19.33;13.07;;;6.50;99.90;;;;;;5050734;28;20775;-52
2022/01/10 09:27:58;;;;;;;24.93;14.50;;;6.50;99.90;;;;;;5036158;28;20353;-48
2022/01/10 09:30:24;;;;;;;16.13;12.47;;;6.60;99.90;;;;;;5049001;28;20180;-49
2022/01/10 09:32:50;;;;;;;18.90;13.50;;;6.60;99.90;;;;;;5049861;28;20455;-50
2022/01/10 09:35:16;;;;;;;15.90;13.63;;;6.50;99.90;;;;;;5054713;28;20992;-53
2022/01/10 09:37:42;;;;;;;17.53;13.60;;;6.60;99.90;;;;;;5053615;28;20425;-51
2022/01/10 09:40:08;;;;;;;20.50;12.50;;;6.60;99.90;;;;;;5037045;28;20222;-51
2022/01/10 09:42:34;;;;;;;17.27;13.33;;;6.60;99.90;;;;;;5039858;28;20183;-53
2022/01/10 09:45:05;;;;;;;19.00;14.37;;;6.40;99.90;;;;;;5052354;28;20500;-52
2022/01/10 09:47:31;;;;;;;17.50;13.80;;;6.20;99.90;;;;;;5036254;28;20456;-51
2022/01/10 09:49:57;;;;;;;18.03;14.20;;;6.20;99.90;;;;;;5053000;28;21004;-49
2022/01/10 09:52:23;;;;;;;20.20;15.17;;;6.40;99.90;;;;;;5048740;28;20446;-51
2022/01/10 09:54:50;;;;;;;20.23;13.30;;;6.50;99.90;;;;;;5036592;28;20194;-51
2022/01/10 09:57:16;;;;;;;14.60;11.80;;;6.50;99.90;;;;;;5048702;28;20235;-51
2022/01/10 09:59:43;;;;;;;19.03;12.90;;;6.40;99.90;;;;;;5047948;28;20561;-53
2022/01/10 10:02:10;;;;;;;19.33;12.67;;;6.30;99.90;;;;;;5034155;28;20553;-54
2022/01/10 10:04:37;;;;;;;18.30;11.77;;;6.40;99.90;;;;;;5050572;28;20457;-55
2022/01/10 10:07:05;;;;;;;17.67;10.63;;;6.50;99.90;;;;;;5051611;28;20473;-54
2022/01/10 10:09:31;;;;;;;13.13;9.00;;;6.50;99.90;;;;;;5052086;28;20830;-49
2022/01/10 10:11:56;;;;;;;11.40;7.77;;;6.70;99.90;;;;;;5050308;28;20441;-54
2022/01/10 10:14:23;;;;;;;19.00;8.57;;;6.70;99.90;;;;;;5049151;28;20504;-50
2022/01/10 10:16:55;;;;;;;13.10;7.93;;;6.70;99.90;;;;;;5052399;28;20215;-54
2022/01/10 10:19:24;;;;;;;13.63;8.33;;;6.80;99.90;;;;;;5034571;28;20440;-52
2022/01/10 10:21:52;;;;;;;16.23;7.57;;;6.80;99.90;;;;;;5049125;28;20525;-50
2022/01/10 10:24:18;;;;;;;13.67;8.30;;;6.80;99.90;;;;;;5053644;28;20432;-51
2022/01/10 10:26:45;;;;;;;13.13;8.60;;;6.50;99.90;;;;;;5050327;28;20829;-49
2022/01/10 10:29:13;;;;;;;10.07;7.77;;;6.70;99.90;;;;;;5050748;28;20448;-47
2022/01/10 10:31:46;;;;;;;21.23;8.27;;;6.70;99.90;;;;;;5056357;28;20437;-51
2022/01/10 10:34:17;;;;;;;14.33;7.83;;;6.80;99.90;;;;;;5038366;28;20433;-50
2022/01/10 10:36:43;;;;;;;14.60;7.83;;;6.90;99.90;;;;;;5054219;28;20466;-53
2022/01/10 10:39:10;;;;;;;10.77;7.60;;;6.80;99.90;;;;;;5057610;28;20490;-53
2022/01/10 10:41:37;;;;;;;14.37;8.10;;;6.90;99.90;;;;;;5053828;28;20222;-52
2022/01/10 10:44:04;;;;;;;18.63;8.83;;;6.90;99.90;;;;;;5051522;28;20503;-52
2022/01/10 10:46:29;;;;;;;12.83;7.80;;;6.80;99.90;;;;;;5057459;28;20463;-49
2022/01/10 10:49:02;;;;;;;23.13;8.67;;;6.80;99.90;;;;;;5034128;28;20434;-52
2022/01/10 10:51:33;;;;;;;14.30;8.23;;;7.00;99.90;;;;;;5053353;28;20195;-51
2022/01/10 10:54:12;;;;;;;17.67;8.40;;;7.00;99.90;;;;;;5052689;28;20514;-51
2022/01/10 10:56:39;;;;;;;11.10;7.47;;;7.10;99.90;;;;;;5054517;28;20460;-52
2022/01/10 10:59:07;;;;;;;11.73;9.03;;;7.20;99.90;;;;;;5053274;28;20806;-50
2022/01/10 11:01:36;;;;;;;14.77;7.90;;;7.10;99.90;;;;;;5055728;28;20977;-51
2022/01/10 11:04:03;;;;;;;15.43;9.43;;;7.00;99.90;;;;;;5053988;28;20535;-53
2022/01/10 11:06:32;;;;;;;12.80;7.83;;;7.10;99.90;;;;;;5055532;28;20482;-52
2022/01/10 11:09:06;;;;;;;15.30;8.83;;;7.00;99.90;;;;;;5053636;28;20422;-51
2022/01/10 11:11:32;;;;;;;19.43;9.73;;;6.90;99.90;;;;;;5053437;28;20451;-49
2022/01/10 11:14:00;;;;;;;19.40;10.03;;;7.00;99.90;;;;;;5052442;28;20427;-53
2022/01/10 11:16:27;;;;;;;15.37;8.70;;;7.10;99.90;;;;;;5055012;28;20511;-52
2022/01/10 11:18:54;;;;;;;15.20;10.00;;;7.10;99.90;;;;;;5049374;28;20457;-49
2022/01/10 11:21:22;;;;;;;12.93;9.40;;;7.20;99.90;;;;;;5053803;28;20457;-53
2022/01/10 11:23:50;;;;;;;14.67;9.40;;;7.20;99.90;;;;;;5054245;28;20437;-50
2022/01/10 11:26:17;;;;;;;16.33;9.87;;;7.00;99.90;;;;;;5052908;28;20446;-52
2022/01/10 11:28:54;;;;;;;16.03;10.90;;;6.70;99.90;;;;;;5051049;28;20432;-54
2022/01/10 11:31:27;;;;;;;17.93;11.50;;;6.80;99.90;;;;;;5054833;28;20441;-52
2022/01/10 11:33:55;;;;;;;16.53;11.20;;;7.00;99.90;;;;;;5056145;28;20421;-50
2022/01/10 11:36:24;;;;;;;17.33;11.20;;;7.20;99.90;;;;;;5044345;28;20466;-55
2022/01/10 11:38:53;;;;;;;16.53;11.77;;;7.20;99.90;;;;;;5052778;28;20520;-50
2022/01/10 11:41:27;;;;;;;15.50;12.00;;;7.30;99.90;;;;;;5051098;28;20466;-51
2022/01/10 11:43:57;;;;;;;14.87;11.57;;;7.40;99.90;;;;;;5050742;28;20512;-52
2022/01/10 11:46:43;;;;;;;14.13;9.90;;;7.20;99.90;;;;;;5054345;28;20450;-50
2022/01/10 11:49:08;;;;;;;14.60;9.00;;;7.40;99.90;;;;;;5048973;28;20788;-49
2022/01/10 11:51:40;;;;;;;12.60;8.37;;;7.50;99.90;;;;;;5050601;28;20455;-48
2022/01/10 11:54:14;;;;;;;15.10;8.27;;;7.70;99.90;;;;;;5053070;28;20219;-49
2022/01/10 11:56:52;;;;;;;20.17;9.00;;;7.80;99.90;;;;;;5053070;28;21406;-52
2022/01/10 11:59:23;;;;;;;16.70;9.57;;;7.80;99.90;;;;;;5054812;28;20517;-53
2022/01/10 12:01:59;;;;;;;11.50;7.90;;;8.30;99.90;;;;;;5053051;28;20465;-49
2022/01/10 12:04:28;;;;;;;13.30;8.40;;;8.60;99.90;;;;;;5052468;28;20436;-50
2022/01/10 12:06:54;;;;;;;16.83;8.57;;;9.30;99.90;;;;;;5054084;28;20449;-53
2022/01/10 12:09:20;;;;;;;12.80;8.13;;;10.30;99.90;;;;;;5033668;28;20528;-52
2022/01/10 12:11:49;;;;;;;13.67;7.80;;;11.10;99.90;;;;;;5048243;28;20468;-51
2022/01/10 12:14:15;;;;;;;10.90;7.20;;;11.20;99.90;;;;;;5043779;28;20442;-49
2022/01/10 12:16:41;;;;;;;14.07;7.23;;;11.40;99.90;;;;;;5049141;28;20496;-47
2022/01/10 12:19:08;;;;;;;11.03;7.80;;;11.90;99.90;;;;;;5055403;28;20775;-49
2022/01/10 12:21:35;;;;;;;12.43;7.30;;;12.10;99.90;;;;;;5051139;28;20466;-49
2022/01/10 12:24:01;;;;;;;9.47;6.97;;;12.10;99.90;;;;;;5051288;28;20431;-48
2022/01/10 12:26:28;;;;;;;16.03;7.03;;;12.20;99.90;;;;;;5055850;28;20456;-49
2022/01/10 12:28:57;;;;;;;10.27;5.90;;;12.70;99.90;;;;;;5049694;28;20449;-54
2022/01/10 12:31:25;;;;;;;8.90;5.60;;;13.90;99.90;;;;;;5038851;28;20943;-49
2022/01/10 12:33:53;;;;;;;8.67;5.40;;;15.10;99.90;;;;;;5054465;28;20483;-52
2022/01/10 12:36:21;;;;;;;13.93;6.30;;;15.40;99.90;;;;;;5050874;28;20454;-52
2022/01/10 12:38:55;;;;;;;10.07;5.23;;;15.60;99.90;;;;;;5051399;28;20441;-52
2022/01/10 12:41:21;;;;;;;15.27;7.00;;;15.30;99.90;;;;;;5036582;28;20780;-49
2022/01/10 12:43:50;;;;;;;9.13;5.50;;;14.50;99.90;;;;;;5053864;28;20437;-51
2022/01/10 12:46:17;;;;;;;9.90;5.70;;;13.90;99.90;;;;;;5051377;28;20219;-52
2022/01/10 12:48:46;;;;;;;13.03;6.93;;;13.20;99.90;;;;;;5052934;28;20435;-47